www.cux-wetter.de
Wetterdaten: Mittwoch, 28.05.2008
Datum Zeit Temp. A. Feuchte A. Luftdruck Regen Wind Richtung Richtung Sonnenschein Solar Taupunkt Windchill Windben
28.05.2008 00:04 14,6 C 65 % 1014,5 hPa 0,0 l/m 32,9 km/h (5 Bft) SO 140 0 min 0 W/m 8,1 C 6,7 C 32,9 km/h (5 Bft)
28.05.2008 00:09 14,6 C 65 % 1014,5 hPa 0,0 l/m 25,6 km/h (4 Bft) SO 125 0 min 0 W/m 8,1 C 7,9 C 25,6 km/h (4 Bft)
28.05.2008 00:14 14,5 C 66 % 1014,5 hPa 0,0 l/m 29,5 km/h (5 Bft) O-SO 115 0 min 0 W/m 8,2 C 7,1 C 29,5 km/h (5 Bft)
28.05.2008 00:19 14,4 C 66 % 1014,5 hPa 0,0 l/m 21,5 km/h (4 Bft) SO 125 0 min 0 W/m 8,1 C 8,6 C 21,5 km/h (4 Bft)
28.05.2008 00:24 14,3 C 66 % 1014,5 hPa 0,0 l/m 24,6 km/h (4 Bft) SO 130 0 min 0 W/m 8,0 C 7,7 C 24,6 km/h (4 Bft)
28.05.2008 00:29 14,2 C 66 % 1014,5 hPa 0,0 l/m 15,5 km/h (3 Bft) SO 135 0 min 0 W/m 7,9 C 10,1 C 15,5 km/h (3 Bft)
28.05.2008 00:34 14,2 C 66 % 1014,5 hPa 0,0 l/m 29,6 km/h (5 Bft) O-SO 120 0 min 0 W/m 7,9 C 6,6 C 29,6 km/h (5 Bft)
28.05.2008 00:39 14,1 C 66 % 1014,5 hPa 0,0 l/m 25,4 km/h (4 Bft) SO 130 0 min 0 W/m 7,8 C 7,3 C 25,4 km/h (4 Bft)
28.05.2008 00:44 14,0 C 67 % 1014,5 hPa 0,0 l/m 27,0 km/h (5 Bft) O-SO 120 0 min 0 W/m 8,0 C 6,8 C 27,0 km/h (5 Bft)
28.05.2008 00:49 13,9 C 67 % 1014,5 hPa 0,0 l/m 20,0 km/h (4 Bft) SO 145 0 min 0 W/m 7,9 C 8,3 C 20,0 km/h (4 Bft)
28.05.2008 00:54 13,8 C 67 % 1014,5 hPa 0,0 l/m 19,0 km/h (3 Bft) O 100 0 min 0 W/m 7,8 C 8,5 C 19,0 km/h (3 Bft)
28.05.2008 00:59 13,7 C 67 % 1014,5 hPa 0,0 l/m 22,3 km/h (4 Bft) SO 130 0 min 0 W/m 7,7 C 7,5 C 22,3 km/h (4 Bft)
28.05.2008 01:04 13,7 C 67 % 1014,5 hPa 0,0 l/m 23,8 km/h (4 Bft) SO 135 0 min 0 W/m 7,7 C 7,1 C 23,8 km/h (4 Bft)
28.05.2008 01:09 13,6 C 67 % 1014,5 hPa 0,0 l/m 22,7 km/h (4 Bft) SO 140 0 min 0 W/m 7,6 C 7,2 C 22,7 km/h (4 Bft)
28.05.2008 01:14 13,6 C 66 % 1014,5 hPa 0,0 l/m 26,4 km/h (4 Bft) O-SO 105 0 min 0 W/m 7,4 C 6,4 C 26,4 km/h (4 Bft)
28.05.2008 01:19 13,6 C 66 % 1014,5 hPa 0,0 l/m 22,8 km/h (4 Bft) O 90 0 min 0 W/m 7,4 C 7,2 C 22,8 km/h (4 Bft)
28.05.2008 01:24 13,6 C 66 % 1014,5 hPa 0,0 l/m 21,6 km/h (4 Bft) SO 130 0 min 0 W/m 7,4 C 7,5 C 21,6 km/h (4 Bft)
28.05.2008 01:29 13,6 C 66 % 1014,5 hPa 0,0 l/m 21,5 km/h (4 Bft) SO 125 0 min 0 W/m 7,4 C 7,5 C 21,5 km/h (4 Bft)
28.05.2008 01:34 13,5 C 66 % 1014,5 hPa 0,0 l/m 23,7 km/h (4 Bft) SO 130 0 min 0 W/m 7,3 C 6,9 C 23,7 km/h (4 Bft)
28.05.2008 01:39 13,5 C 67 % 1014,5 hPa 0,0 l/m 28,6 km/h (5 Bft) SO 125 0 min 0 W/m 7,5 C 5,8 C 28,6 km/h (5 Bft)
28.05.2008 01:45 13,4 C 67 % 1014,5 hPa 0,0 l/m 27,1 km/h (5 Bft) O-SO 110 0 min 0 W/m 7,4 C 6,0 C 27,1 km/h (5 Bft)
28.05.2008 01:49 13,4 C 68 % 1014,5 hPa 0,0 l/m 19,6 km/h (3 Bft) O-SO 115 0 min 0 W/m 7,6 C 7,8 C 19,6 km/h (3 Bft)
28.05.2008 01:54 13,4 C 67 % 1014,5 hPa 0,0 l/m 24,3 km/h (4 Bft) O-SO 115 0 min 0 W/m 7,4 C 6,6 C 24,3 km/h (4 Bft)
28.05.2008 01:59 13,3 C 68 % 1013,5 hPa 0,0 l/m 27,2 km/h (5 Bft) SO 140 0 min 0 W/m 7,5 C 5,8 C 27,2 km/h (5 Bft)
28.05.2008 02:04 13,3 C 68 % 1013,5 hPa 0,0 l/m 35,6 km/h (5 Bft) SO 135 0 min 0 W/m 7,5 C 4,4 C 35,6 km/h (5 Bft)
28.05.2008 02:09 13,2 C 68 % 1013,5 hPa 0,0 l/m 22,1 km/h (4 Bft) SO 135 0 min 0 W/m 7,4 C 6,9 C 22,1 km/h (4 Bft)
28.05.2008 02:14 13,2 C 68 % 1013,5 hPa 0,0 l/m 22,1 km/h (4 Bft) SO 135 0 min 0 W/m 7,4 C 6,9 C 22,1 km/h (4 Bft)
28.05.2008 02:19 13,2 C 69 % 1013,5 hPa 0,0 l/m 24,4 km/h (4 Bft) O-SO 110 0 min 0 W/m 7,6 C 6,3 C 24,4 km/h (4 Bft)
28.05.2008 02:24 13,1 C 69 % 1013,5 hPa 0,0 l/m 25,4 km/h (4 Bft) SO 145 0 min 0 W/m 7,5 C 5,9 C 25,4 km/h (4 Bft)
28.05.2008 02:29 13,1 C 69 % 1014,5 hPa 0,0 l/m 25,6 km/h (4 Bft) O-SO 120 0 min 0 W/m 7,5 C 5,9 C 25,6 km/h (4 Bft)
28.05.2008 02:34 13,0 C 69 % 1014,5 hPa 0,0 l/m 25,1 km/h (4 Bft) SO 130 0 min 0 W/m 7,4 C 5,9 C 25,1 km/h (4 Bft)
28.05.2008 02:39 13,0 C 70 % 1014,5 hPa 0,0 l/m 25,6 km/h (4 Bft) SO 140 0 min 0 W/m 7,7 C 5,8 C 25,6 km/h (4 Bft)
28.05.2008 02:44 13,0 C 70 % 1014,5 hPa 0,0 l/m 22,8 km/h (4 Bft) SO 140 0 min 0 W/m 7,7 C 6,4 C 22,8 km/h (4 Bft)
28.05.2008 02:49 13,0 C 70 % 1014,5 hPa 0,0 l/m 26,4 km/h (4 Bft) O-SO 105 0 min 0 W/m 7,7 C 5,6 C 26,4 km/h (4 Bft)
28.05.2008 02:54 13,0 C 70 % 1014,5 hPa 0,0 l/m 30,8 km/h (5 Bft) SO 125 0 min 0 W/m 7,7 C 4,7 C 30,8 km/h (5 Bft)
28.05.2008 02:59 13,0 C 70 % 1014,5 hPa 0,0 l/m 22,0 km/h (4 Bft) S 170 0 min 0 W/m 7,7 C 6,6 C 22,0 km/h (4 Bft)
28.05.2008 03:04 12,9 C 71 % 1014,5 hPa 0,0 l/m 21,9 km/h (4 Bft) SO 145 0 min 0 W/m 7,8 C 6,5 C 21,9 km/h (4 Bft)
28.05.2008 03:09 12,9 C 71 % 1014,5 hPa 0,0 l/m 13,1 km/h (3 Bft) SO 135 0 min 0 W/m 7,8 C 9,4 C 13,1 km/h (3 Bft)
28.05.2008 03:14 12,8 C 71 % 1014,5 hPa 0,0 l/m 24,0 km/h (4 Bft) O-SO 120 0 min 0 W/m 7,7 C 5,9 C 24,0 km/h (4 Bft)
28.05.2008 03:19 12,8 C 71 % 1014,5 hPa 0,0 l/m 29,2 km/h (5 Bft) SO 125 0 min 0 W/m 7,7 C 4,7 C 29,2 km/h (5 Bft)
28.05.2008 03:24 12,8 C 71 % 1013,5 hPa 0,0 l/m 34,6 km/h (5 Bft) O 100 0 min 0 W/m 7,7 C 3,8 C 34,6 km/h (5 Bft)
28.05.2008 03:29 12,8 C 72 % 1013,5 hPa 0,0 l/m 29,0 km/h (5 Bft) O-SO 115 0 min 0 W/m 7,9 C 4,8 C 29,0 km/h (5 Bft)
28.05.2008 03:34 12,9 C 72 % 1013,5 hPa 0,0 l/m 26,5 km/h (4 Bft) O-SO 110 0 min 0 W/m 8,0 C 5,4 C 26,5 km/h (4 Bft)
28.05.2008 03:39 13,0 C 73 % 1013,5 hPa 0,0 l/m 31,0 km/h (5 Bft) SO 125 0 min 0 W/m 8,3 C 4,7 C 31,0 km/h (5 Bft)
28.05.2008 03:44 13,1 C 73 % 1012,5 hPa 0,0 l/m 25,8 km/h (4 Bft) SO 135 0 min 0 W/m 8,4 C 5,9 C 25,8 km/h (4 Bft)
28.05.2008 03:49 13,0 C 73 % 1013,5 hPa 0,0 l/m 27,6 km/h (5 Bft) SO 145 0 min 0 W/m 8,3 C 5,3 C 27,6 km/h (5 Bft)
28.05.2008 03:54 13,1 C 73 % 1013,5 hPa 0,0 l/m 26,8 km/h (4 Bft) SO 140 0 min 0 W/m 8,4 C 5,6 C 26,8 km/h (4 Bft)
28.05.2008 03:59 13,1 C 73 % 1013,5 hPa 0,0 l/m 27,7 km/h (5 Bft) SO 130 0 min 0 W/m 8,4 C 5,5 C 27,7 km/h (5 Bft)
28.05.2008 04:04 13,0 C 73 % 1013,5 hPa 0,0 l/m 29,0 km/h (5 Bft) SO 140 0 min 0 W/m 8,3 C 5,1 C 29,0 km/h (5 Bft)
28.05.2008 04:09 13,0 C 73 % 1013,5 hPa 0,0 l/m 27,3 km/h (5 Bft) O-SO 105 0 min 0 W/m 8,3 C 5,4 C 27,3 km/h (5 Bft)
28.05.2008 04:14 13,1 C 73 % 1013,5 hPa 0,0 l/m 22,0 km/h (4 Bft) SO 140 0 min 0 W/m 8,4 C 6,8 C 22,0 km/h (4 Bft)
28.05.2008 04:19 13,1 C 73 % 1013,5 hPa 0,0 l/m 32,1 km/h (5 Bft) SO 130 0 min 0 W/m 8,4 C 4,6 C 32,1 km/h (5 Bft)
28.05.2008 04:25 13,1 C 73 % 1012,5 hPa 0,0 l/m 25,5 km/h (4 Bft) SO 135 0 min 0 W/m 8,4 C 5,9 C 25,5 km/h (4 Bft)
28.05.2008 04:29 13,1 C 73 % 1012,5 hPa 0,0 l/m 25,1 km/h (4 Bft) SO 125 0 min 0 W/m 8,4 C 6,0 C 25,1 km/h (4 Bft)
28.05.2008 04:34 13,0 C 73 % 1012,5 hPa 0,0 l/m 36,6 km/h (5 Bft) O-SO 120 0 min 0 W/m 8,3 C 3,8 C 36,6 km/h (5 Bft)
28.05.2008 04:39 13,0 C 73 % 1012,5 hPa 0,0 l/m 27,0 km/h (5 Bft) SO 125 0 min 0 W/m 8,3 C 5,5 C 27,0 km/h (5 Bft)
28.05.2008 04:44 13,0 C 73 % 1012,5 hPa 0,0 l/m 30,9 km/h (5 Bft) SO 145 0 min 0 W/m 8,3 C 4,7 C 30,9 km/h (5 Bft)
28.05.2008 04:49 13,2 C 74 % 1012,5 hPa 0,0 l/m 28,1 km/h (5 Bft) SO 125 0 min 0 W/m 8,7 C 5,5 C 28,1 km/h (5 Bft)
28.05.2008 04:54 13,3 C 73 % 1012,5 hPa 0,0 l/m 28,0 km/h (5 Bft) SO 135 0 min 0 W/m 8,6 C 5,7 C 28,0 km/h (5 Bft)
28.05.2008 04:59 13,3 C 72 % 1012,5 hPa 0,0 l/m 22,1 km/h (4 Bft) SO 135 0 min 0 W/m 8,4 C 7,0 C 22,1 km/h (4 Bft)
28.05.2008 05:04 13,5 C 72 % 1012,5 hPa 0,0 l/m 25,3 km/h (4 Bft) SO 125 0 min 0 W/m 8,6 C 6,5 C 25,3 km/h (4 Bft)
28.05.2008 05:09 13,4 C 72 % 1012,5 hPa 0,0 l/m 21,8 km/h (4 Bft) O-SO 120 0 min 0 W/m 8,5 C 7,2 C 21,8 km/h (4 Bft)
28.05.2008 05:14 13,4 C 72 % 1012,5 hPa 0,0 l/m 36,5 km/h (5 Bft) SO 125 0 min 0 W/m 8,5 C 4,4 C 36,5 km/h (5 Bft)
28.05.2008 05:19 13,4 C 71 % 1012,5 hPa 0,0 l/m 29,3 km/h (5 Bft) SO 125 0 min 0 W/m 8,3 C 5,6 C 29,3 km/h (5 Bft)
28.05.2008 05:24 13,4 C 71 % 1012,5 hPa 0,0 l/m 27,0 km/h (5 Bft) SO 125 0 min 0 W/m 8,3 C 6,0 C 27,0 km/h (5 Bft)
28.05.2008 05:29 13,4 C 71 % 1012,5 hPa 0,0 l/m 28,1 km/h (5 Bft) SO 140 0 min 0 W/m 8,3 C 5,8 C 28,1 km/h (5 Bft)
28.05.2008 05:34 13,4 C 72 % 1012,5 hPa 0,0 l/m 30,0 km/h (5 Bft) SO 125 0 min 0 W/m 8,5 C 5,4 C 30,0 km/h (5 Bft)
28.05.2008 05:39 13,5 C 71 % 1012,5 hPa 0,0 l/m 29,7 km/h (5 Bft) SO 135 0 min 0 W/m 8,3 C 5,6 C 29,7 km/h (5 Bft)
28.05.2008 05:44 13,6 C 71 % 1012,5 hPa 0,0 l/m 28,4 km/h (5 Bft) SO 145 0 min 0 W/m 8,4 C 6,0 C 28,4 km/h (5 Bft)
28.05.2008 05:49 13,6 C 71 % 1012,5 hPa 0,0 l/m 33,7 km/h (5 Bft) O-SO 120 0 min 0 W/m 8,4 C 5,1 C 33,7 km/h (5 Bft)
28.05.2008 05:54 13,7 C 71 % 1012,5 hPa 0,0 l/m 35,1 km/h (5 Bft) SO 130 0 min 0 W/m 8,5 C 5,0 C 35,1 km/h (5 Bft)
28.05.2008 05:59 13,7 C 71 % 1012,5 hPa 0,0 l/m 25,3 km/h (4 Bft) SO 140 0 min 0 W/m 8,5 C 6,8 C 25,3 km/h (4 Bft)
28.05.2008 06:04 13,8 C 71 % 1012,5 hPa 0,0 l/m 24,5 km/h (4 Bft) SO 130 0 min 0 W/m 8,6 C 7,1 C 24,5 km/h (4 Bft)
28.05.2008 06:09 13,8 C 71 % 1012,5 hPa 0,0 l/m 32,0 km/h (5 Bft) SO 140 0 min 0 W/m 8,6 C 5,7 C 32,0 km/h (5 Bft)
28.05.2008 06:14 13,8 C 71 % 1012,5 hPa 0,0 l/m 27,5 km/h (5 Bft) SO 145 0 min 0 W/m 8,6 C 6,5 C 27,5 km/h (5 Bft)
28.05.2008 06:19 13,8 C 71 % 1012,5 hPa 0,0 l/m 30,2 km/h (5 Bft) S-SO 155 0 min 0 W/m 8,6 C 6,0 C 30,2 km/h (5 Bft)
28.05.2008 06:24 13,9 C 71 % 1012,5 hPa 0,0 l/m 28,2 km/h (5 Bft) O-SO 115 0 min 0 W/m 8,7 C 6,5 C 28,2 km/h (5 Bft)
28.05.2008 06:29 13,9 C 71 % 1012,5 hPa 0,0 l/m 24,7 km/h (4 Bft) O-SO 120 0 min 0 W/m 8,7 C 7,2 C 24,7 km/h (4 Bft)
28.05.2008 06:34 13,9 C 71 % 1012,5 hPa 0,0 l/m 25,5 km/h (4 Bft) SO 135 0 min 0 W/m 8,7 C 7,0 C 25,5 km/h (4 Bft)
28.05.2008 06:39 14,0 C 70 % 1012,5 hPa 0,0 l/m 28,2 km/h (5 Bft) SO 145 0 min 0 W/m 8,6 C 6,6 C 28,2 km/h (5 Bft)
28.05.2008 06:44 14,1 C 70 % 1012,5 hPa 0,0 l/m 26,7 km/h (4 Bft) SO 125 0 min 0 W/m 8,7 C 7,0 C 26,7 km/h (4 Bft)
28.05.2008 06:49 14,1 C 70 % 1012,5 hPa 0,0 l/m 29,5 km/h (5 Bft) O-SO 120 0 min 0 W/m 8,7 C 6,5 C 29,5 km/h (5 Bft)
28.05.2008 06:54 14,2 C 69 % 1012,5 hPa 0,0 l/m 32,6 km/h (5 Bft) SO 140 0 min 0 W/m 8,6 C 6,1 C 32,6 km/h (5 Bft)
28.05.2008 06:59 14,2 C 70 % 1012,5 hPa 0,0 l/m 27,8 km/h (5 Bft) SO 140 0 min 0 W/m 8,8 C 7,0 C 27,8 km/h (5 Bft)
28.05.2008 07:04 14,2 C 69 % 1012,5 hPa 0,0 l/m 28,4 km/h (5 Bft) SO 140 0 min 0 W/m 8,6 C 6,8 C 28,4 km/h (5 Bft)
28.05.2008 07:09 14,2 C 70 % 1012,5 hPa 0,0 l/m 24,9 km/h (4 Bft) O-SO 120 0 min 0 W/m 8,8 C 7,5 C 24,9 km/h (4 Bft)
28.05.2008 07:14 14,2 C 70 % 1012,5 hPa 0,0 l/m 23,0 km/h (4 Bft) O-SO 110 0 min 0 W/m 8,8 C 8,0 C 23,0 km/h (4 Bft)
28.05.2008 07:19 14,2 C 68 % 1012,5 hPa 0,0 l/m 21,6 km/h (4 Bft) O-SO 120 0 min 0 W/m 8,4 C 8,3 C 21,6 km/h (4 Bft)
28.05.2008 07:24 14,2 C 68 % 1012,5 hPa 0,0 l/m 32,9 km/h (5 Bft) SO 135 0 min 0 W/m 8,4 C 6,1 C 32,9 km/h (5 Bft)
28.05.2008 07:29 14,2 C 68 % 1012,5 hPa 0,0 l/m 28,8 km/h (5 Bft) SO 125 0 min 0 W/m 8,4 C 6,8 C 28,8 km/h (5 Bft)
28.05.2008 07:34 14,3 C 68 % 1012,5 hPa 0,0 l/m 27,0 km/h (5 Bft) SO 135 0 min 0 W/m 8,5 C 7,3 C 27,0 km/h (5 Bft)
28.05.2008 07:39 14,3 C 68 % 1012,5 hPa 0,0 l/m 23,1 km/h (4 Bft) SO 125 0 min 0 W/m 8,5 C 8,1 C 23,1 km/h (4 Bft)
28.05.2008 07:44 14,4 C 68 % 1012,5 hPa 0,0 l/m 24,5 km/h (4 Bft) O-SO 115 0 min 0 W/m 8,6 C 7,9 C 24,5 km/h (4 Bft)
28.05.2008 07:49 14,6 C 67 % 1012,5 hPa 0,0 l/m 28,4 km/h (5 Bft) SO 135 0 min 0 W/m 8,5 C 7,4 C 28,4 km/h (5 Bft)
28.05.2008 07:54 14,6 C 67 % 1012,5 hPa 0,0 l/m 33,4 km/h (5 Bft) SO 140 0 min 0 W/m 8,5 C 6,6 C 33,4 km/h (5 Bft)
28.05.2008 07:59 14,8 C 67 % 1012,5 hPa 0,0 l/m 32,8 km/h (5 Bft) SO 125 0 min 0 W/m 8,7 C 7,0 C 32,8 km/h (5 Bft)
28.05.2008 08:04 15,0 C 66 % 1012,5 hPa 0,0 l/m 32,2 km/h (5 Bft) O-SO 105 0 min 0 W/m 8,7 C 7,3 C 32,2 km/h (5 Bft)
28.05.2008 08:09 15,3 C 65 % 1011,5 hPa 0,0 l/m 29,9 km/h (5 Bft) O-SO 105 0 min 0 W/m 8,8 C 8,1 C 29,9 km/h (5 Bft)
28.05.2008 08:14 15,6 C 65 % 1011,5 hPa 0,0 l/m 22,3 km/h (4 Bft) O-SO 120 0 min 0 W/m 9,0 C 10,0 C 22,3 km/h (4 Bft)
28.05.2008 08:19 15,7 C 65 % 1011,5 hPa 0,0 l/m 28,0 km/h (5 Bft) SO 125 0 min 0 W/m 9,1 C 9,0 C 28,0 km/h (5 Bft)
28.05.2008 08:24 15,6 C 64 % 1011,5 hPa 0,0 l/m 31,0 km/h (5 Bft) SO 140 0 min 0 W/m 8,8 C 8,4 C 31,0 km/h (5 Bft)
28.05.2008 08:30 15,7 C 64 % 1011,5 hPa 0,0 l/m 35,0 km/h (5 Bft) SO 130 0 min 0 W/m 8,9 C 7,9 C 35,0 km/h (5 Bft)
28.05.2008 08:34 15,9 C 63 % 1011,5 hPa 0,0 l/m 32,2 km/h (5 Bft) SO 125 0 min 0 W/m 8,9 C 8,6 C 32,2 km/h (5 Bft)
28.05.2008 08:39 16,0 C 61 % 1011,5 hPa 0,0 l/m 27,8 km/h (5 Bft) SO 125 0 min 0 W/m 8,5 C 9,5 C 27,8 km/h (5 Bft)
28.05.2008 08:44 16,0 C 61 % 1011,5 hPa 0,0 l/m 31,4 km/h (5 Bft) O-SO 120 0 min 0 W/m 8,5 C 8,9 C 31,4 km/h (5 Bft)
28.05.2008 08:49 16,2 C 62 % 1011,5 hPa 0,0 l/m 30,6 km/h (5 Bft) SO 135 0 min 0 W/m 8,9 C 9,3 C 30,6 km/h (5 Bft)
28.05.2008 08:54 16,3 C 61 % 1011,5 hPa 0,0 l/m 25,1 km/h (4 Bft) O-SO 120 0 min 0 W/m 8,8 C 10,4 C 25,1 km/h (4 Bft)
28.05.2008 08:59 16,2 C 61 % 1011,5 hPa 0,0 l/m 37,2 km/h (5 Bft) SO 125 0 min 0 W/m 8,7 C 8,4 C 37,2 km/h (5 Bft)
28.05.2008 09:04 16,2 C 61 % 1011,5 hPa 0,0 l/m 24,2 km/h (4 Bft) SO 140 0 min 0 W/m 8,7 C 10,4 C 24,2 km/h (4 Bft)
28.05.2008 09:09 16,2 C 61 % 1011,5 hPa 0,0 l/m 30,5 km/h (5 Bft) SO 135 0 min 0 W/m 8,7 C 9,3 C 30,5 km/h (5 Bft)
28.05.2008 09:14 16,4 C 62 % 1011,5 hPa 0,0 l/m 26,6 km/h (4 Bft) O-SO 115 0 min 0 W/m 9,1 C 10,2 C 26,6 km/h (4 Bft)
28.05.2008 09:19 16,4 C 61 % 1011,5 hPa 0,0 l/m 36,3 km/h (5 Bft) SO 135 0 min 0 W/m 8,9 C 8,8 C 36,3 km/h (5 Bft)
28.05.2008 09:24 16,6 C 62 % 1011,5 hPa 0,0 l/m 26,6 km/h (4 Bft) O-SO 120 0 min 0 W/m 9,3 C 10,5 C 26,6 km/h (4 Bft)
28.05.2008 09:29 16,8 C 62 % 1011,5 hPa 0,0 l/m 27,0 km/h (5 Bft) SO 135 0 min 0 W/m 9,5 C 10,7 C 27,0 km/h (5 Bft)
28.05.2008 09:34 16,8 C 62 % 1011,5 hPa 0,0 l/m 33,7 km/h (5 Bft) O-SO 120 0 min 0 W/m 9,5 C 9,7 C 33,7 km/h (5 Bft)
28.05.2008 09:39 17,3 C 62 % 1011,5 hPa 0,0 l/m 35,5 km/h (5 Bft) SO 130 0 min 0 W/m 9,9 C 10,2 C 35,5 km/h (5 Bft)
28.05.2008 09:44 18,3 C 61 % 1011,5 hPa 0,0 l/m 27,3 km/h (5 Bft) SO 140 0 min 0 W/m 10,6 C 12,7 C 27,3 km/h (5 Bft)
28.05.2008 09:49 18,8 C 58 % 1011,5 hPa 0,0 l/m 35,1 km/h (5 Bft) SO 135 0 min 0 W/m 10,4 C 12,4 C 35,1 km/h (5 Bft)
28.05.2008 09:54 19,6 C 57 % 1011,5 hPa 0,0 l/m 38,3 km/h (6 Bft) SO 140 0 min 0 W/m 10,8 C 13,3 C 38,3 km/h (6 Bft)
28.05.2008 10:00 20,3 C 56 % 1011,5 hPa 0,0 l/m 33,6 km/h (5 Bft) S-SO 150 0 min 0 W/m 11,2 C 14,7 C 33,6 km/h (5 Bft)
28.05.2008 10:04 20,4 C 53 % 1011,5 hPa 0,0 l/m 30,3 km/h (5 Bft) SO 125 0 min 0 W/m 10,5 C 15,2 C 30,3 km/h (5 Bft)
28.05.2008 10:09 20,6 C 54 % 1011,5 hPa 0,0 l/m 35,5 km/h (5 Bft) O-SO 120 0 min 0 W/m 11,0 C 15,0 C 35,5 km/h (5 Bft)
28.05.2008 10:14 21,0 C 55 % 1011,5 hPa 0,0 l/m 23,0 km/h (4 Bft) SO 125 0 min 0 W/m 11,6 C 17,0 C 23,0 km/h (4 Bft)
28.05.2008 10:19 21,3 C 54 % 1010,5 hPa 0,0 l/m 28,6 km/h (5 Bft) SO 125 0 min 0 W/m 11,6 C 16,7 C 28,6 km/h (5 Bft)
28.05.2008 10:24 21,3 C 53 % 1010,5 hPa 0,0 l/m 30,8 km/h (5 Bft) SO 125 0 min 0 W/m 11,3 C 16,5 C 30,8 km/h (5 Bft)
28.05.2008 10:29 21,6 C 54 % 1011,5 hPa 0,0 l/m 27,3 km/h (5 Bft) S 170 0 min 0 W/m 11,9 C 17,3 C 27,3 km/h (5 Bft)
28.05.2008 10:34 21,5 C 52 % 1011,5 hPa 0,0 l/m 42,1 km/h (6 Bft) SO 125 0 min 0 W/m 11,2 C 15,8 C 42,1 km/h (6 Bft)
28.05.2008 10:39 21,5 C 53 % 1011,5 hPa 0,0 l/m 31,2 km/h (5 Bft) SO 140 0 min 0 W/m 11,5 C 16,7 C 31,2 km/h (5 Bft)
28.05.2008 10:44 21,2 C 53 % 1011,5 hPa 0,0 l/m 23,8 km/h (4 Bft) SO 140 0 min 0 W/m 11,2 C 17,2 C 23,8 km/h (4 Bft)
28.05.2008 10:49 20,9 C 55 % 1011,5 hPa 0,0 l/m 34,0 km/h (5 Bft) SO 125 0 min 0 W/m 11,5 C 15,6 C 34,0 km/h (5 Bft)
28.05.2008 10:54 20,8 C 56 % 1011,5 hPa 0,0 l/m 28,3 km/h (5 Bft) SO 140 0 min 0 W/m 11,7 C 16,0 C 28,3 km/h (5 Bft)
28.05.2008 10:59 21,2 C 57 % 1010,5 hPa 0,0 l/m 28,0 km/h (5 Bft) SO 135 0 min 0 W/m 12,3 C 16,6 C 28,0 km/h (5 Bft)
28.05.2008 11:04 21,5 C 54 % 1010,5 hPa 0,0 l/m 32,8 km/h (5 Bft) S-SO 150 0 min 0 W/m 11,8 C 16,5 C 32,8 km/h (5 Bft)
28.05.2008 11:09 21,6 C 53 % 1010,5 hPa 0,0 l/m 30,4 km/h (5 Bft) SO 140 0 min 0 W/m 11,6 C 16,9 C 30,4 km/h (5 Bft)
28.05.2008 11:14 21,6 C 52 % 1011,5 hPa 0,0 l/m 26,6 km/h (4 Bft) S-SO 165 0 min 0 W/m 11,3 C 17,4 C 26,6 km/h (4 Bft)
28.05.2008 11:19 21,3 C 53 % 1011,5 hPa 0,0 l/m 34,3 km/h (5 Bft) S-SO 160 0 min 0 W/m 11,3 C 16,1 C 34,3 km/h (5 Bft)
28.05.2008 11:24 20,9 C 53 % 1011,5 hPa 0,0 l/m 31,3 km/h (5 Bft) SO 130 0 min 0 W/m 11,0 C 15,8 C 31,3 km/h (5 Bft)
28.05.2008 11:29 20,7 C 55 % 1011,5 hPa 0,0 l/m 29,4 km/h (5 Bft) S-SO 150 0 min 0 W/m 11,3 C 15,8 C 29,4 km/h (5 Bft)
28.05.2008 11:34 20,6 C 56 % 1011,5 hPa 0,0 l/m 27,6 km/h (5 Bft) SO 140 0 min 0 W/m 11,5 C 15,9 C 27,6 km/h (5 Bft)
28.05.2008 11:35 20,6 C 56 % 1011,5 hPa 0,0 l/m 27,6 km/h (5 Bft) SO 140 0 min 0 W/m 11,5 C 15,9 C 27,6 km/h (5 Bft)
28.05.2008 11:39 20,6 C 56 % 1011,5 hPa 0,0 l/m 22,3 km/h (4 Bft) SO 140 0 min 0 W/m 11,5 C 16,6 C 22,3 km/h (4 Bft)
28.05.2008 11:44 20,7 C 56 % 1011,5 hPa 0,0 l/m 22,8 km/h (4 Bft) S-SO 150 0 min 0 W/m 11,6 C 16,7 C 22,8 km/h (4 Bft)
28.05.2008 11:49 21,2 C 57 % 1011,5 hPa 0,0 l/m 22,4 km/h (4 Bft) SO 145 0 min 0 W/m 12,3 C 17,4 C 22,4 km/h (4 Bft)
28.05.2008 11:54 22,0 C 54 % 1012,5 hPa 0,0 l/m 28,1 km/h (5 Bft) S-SO 150 0 min 0 W/m 12,3 C 17,7 C 28,1 km/h (5 Bft)
28.05.2008 11:59 22,2 C 52 % 1012,5 hPa 0,0 l/m 30,9 km/h (5 Bft) SO 140 0 min 0 W/m 11,9 C 17,7 C 30,9 km/h (5 Bft)
28.05.2008 12:04 22,2 C 53 % 1011,5 hPa 0,0 l/m 26,3 km/h (4 Bft) SO 145 0 min 0 W/m 12,2 C 18,2 C 26,3 km/h (4 Bft)
28.05.2008 12:09 22,8 C 52 % 1011,5 hPa 0,0 l/m 29,5 km/h (5 Bft) SO 125 0 min 0 W/m 12,4 C 18,7 C 29,5 km/h (5 Bft)
28.05.2008 12:14 23,2 C 51 % 1011,5 hPa 0,0 l/m 26,2 km/h (4 Bft) O-SO 120 0 min 0 W/m 12,5 C 19,6 C 26,2 km/h (4 Bft)
28.05.2008 12:20 23,3 C 50 % 1011,5 hPa 0,0 l/m 31,3 km/h (5 Bft) SO 135 0 min 0 W/m 12,3 C 19,2 C 31,3 km/h (5 Bft)
28.05.2008 12:24 23,2 C 49 % 1011,5 hPa 0,0 l/m 27,9 km/h (5 Bft) SO 145 0 min 0 W/m 11,9 C 19,4 C 27,9 km/h (5 Bft)
28.05.2008 12:29 23,5 C 49 % 1011,5 hPa 0,0 l/m 25,0 km/h (4 Bft) SO 130 0 min 0 W/m 12,2 C 20,1 C 25,0 km/h (4 Bft)
28.05.2008 12:34 23,6 C 49 % 1011,5 hPa 0,0 l/m 25,8 km/h (4 Bft) S-SO 160 0 min 0 W/m 12,2 C 20,2 C 25,8 km/h (4 Bft)
28.05.2008 12:39 24,0 C 48 % 1011,5 hPa 0,0 l/m 33,4 km/h (5 Bft) S-SO 150 0 min 0 W/m 12,3 C 20,1 C 33,4 km/h (5 Bft)
28.05.2008 12:44 24,0 C 44 % 1011,5 hPa 0,0 l/m 29,5 km/h (5 Bft) SO 140 0 min 0 W/m 11,0 C 20,4 C 29,5 km/h (5 Bft)
28.05.2008 12:49 24,1 C 47 % 1011,5 hPa 0,0 l/m 29,0 km/h (5 Bft) S-SO 160 0 min 0 W/m 12,1 C 20,6 C 29,0 km/h (5 Bft)
28.05.2008 12:54 24,0 C 47 % 1011,5 hPa 0,0 l/m 29,0 km/h (5 Bft) S-SO 160 0 min 0 W/m 12,0 C 20,4 C 29,0 km/h (5 Bft)
28.05.2008 12:59 23,6 C 49 % 1011,5 hPa 0,0 l/m 27,0 km/h (5 Bft) O-SO 115 0 min 0 W/m 12,2 C 20,1 C 27,0 km/h (5 Bft)
28.05.2008 13:04 23,5 C 48 % 1011,5 hPa 0,0 l/m 32,2 km/h (5 Bft) SO 135 0 min 0 W/m 11,8 C 19,5 C 32,2 km/h (5 Bft)
28.05.2008 13:09 23,5 C 48 % 1011,5 hPa 0,0 l/m 24,5 km/h (4 Bft) S-SO 150 0 min 0 W/m 11,8 C 20,2 C 24,5 km/h (4 Bft)
28.05.2008 13:14 23,6 C 45 % 1011,5 hPa 0,0 l/m 30,5 km/h (5 Bft) SO 135 0 min 0 W/m 11,0 C 19,7 C 30,5 km/h (5 Bft)
28.05.2008 13:19 24,1 C 45 % 1011,5 hPa 0,0 l/m 25,4 km/h (4 Bft) O-SO 120 0 min 0 W/m 11,4 C 20,9 C 25,4 km/h (4 Bft)
28.05.2008 13:24 24,2 C 46 % 1011,5 hPa 0,0 l/m 31,2 km/h (5 Bft) SO 145 0 min 0 W/m 11,8 C 20,5 C 31,2 km/h (5 Bft)
28.05.2008 13:29 24,1 C 44 % 1011,5 hPa 0,0 l/m 31,1 km/h (5 Bft) SO 140 0 min 0 W/m 11,1 C 20,4 C 31,1 km/h (5 Bft)
28.05.2008 13:34 24,0 C 47 % 1011,5 hPa 0,0 l/m 25,6 km/h (4 Bft) SO 140 0 min 0 W/m 12,0 C 20,7 C 25,6 km/h (4 Bft)
28.05.2008 13:39 23,8 C 45 % 1011,5 hPa 0,0 l/m 29,3 km/h (5 Bft) SO 125 0 min 0 W/m 11,1 C 20,1 C 29,3 km/h (5 Bft)
28.05.2008 13:44 23,5 C 47 % 1011,5 hPa 0,0 l/m 24,3 km/h (4 Bft) SO 140 0 min 0 W/m 11,5 C 20,2 C 24,3 km/h (4 Bft)
28.05.2008 13:49 23,6 C 45 % 1011,5 hPa 0,0 l/m 32,3 km/h (5 Bft) S-SO 155 0 min 0 W/m 11,0 C 19,6 C 32,3 km/h (5 Bft)
28.05.2008 13:54 23,8 C 47 % 1011,5 hPa 0,0 l/m 20,5 km/h (4 Bft) SO 140 0 min 0 W/m 11,8 C 21,1 C 20,5 km/h (4 Bft)
28.05.2008 13:59 24,1 C 45 % 1011,5 hPa 0,0 l/m 23,4 km/h (4 Bft) SO 145 0 min 0 W/m 11,4 C 21,1 C 23,4 km/h (4 Bft)
28.05.2008 14:04 25,0 C 44 % 1011,5 hPa 0,0 l/m 31,8 km/h (5 Bft) SO 140 0 min 0 W/m 11,9 C 21,6 C 31,8 km/h (5 Bft)
28.05.2008 14:09 25,3 C 44 % 1011,5 hPa 0,0 l/m 29,1 km/h (5 Bft) SO 140 0 min 0 W/m 12,2 C 22,2 C 29,1 km/h (5 Bft)
28.05.2008 14:14 25,4 C 44 % 1011,5 hPa 0,0 l/m 20,0 km/h (4 Bft) S-SO 150 0 min 0 W/m 12,2 C 23,2 C 20,0 km/h (4 Bft)
28.05.2008 14:19 25,2 C 44 % 1011,5 hPa 0,0 l/m 23,2 km/h (4 Bft) SO 135 0 min 0 W/m 12,1 C 22,6 C 23,2 km/h (4 Bft)
28.05.2008 14:24 25,1 C 41 % 1011,5 hPa 0,0 l/m 37,2 km/h (5 Bft) S-SO 150 0 min 0 W/m 10,9 C 21,4 C 37,2 km/h (5 Bft)
28.05.2008 14:29 25,0 C 42 % 1011,5 hPa 0,0 l/m 35,8 km/h (5 Bft) S-SO 160 0 min 0 W/m 11,2 C 21,4 C 35,8 km/h (5 Bft)
28.05.2008 14:34 24,7 C 43 % 1011,5 hPa 0,0 l/m 24,3 km/h (4 Bft) SO 140 0 min 0 W/m 11,3 C 21,8 C 24,3 km/h (4 Bft)
28.05.2008 14:39 24,2 C 44 % 1011,5 hPa 0,0 l/m 25,9 km/h (4 Bft) SO 130 0 min 0 W/m 11,2 C 21,0 C 25,9 km/h (4 Bft)
28.05.2008 14:44 24,0 C 44 % 1011,5 hPa 0,0 l/m 15,8 km/h (3 Bft) S-SO 155 0 min 0 W/m 11,0 C 22,0 C 15,8 km/h (3 Bft)
28.05.2008 14:49 23,9 C 45 % 1011,5 hPa 0,0 l/m 25,8 km/h (4 Bft) SO 145 0 min 0 W/m 11,2 C 20,6 C 25,8 km/h (4 Bft)
28.05.2008 14:55 24,0 C 44 % 1011,5 hPa 0,0 l/m 28,3 km/h (5 Bft) S-SO 155 0 min 0 W/m 11,0 C 20,5 C 28,3 km/h (5 Bft)
28.05.2008 14:59 23,7 C 45 % 1011,5 hPa 0,0 l/m 26,3 km/h (4 Bft) SO 145 0 min 0 W/m 11,1 C 20,3 C 26,3 km/h (4 Bft)
28.05.2008 15:04 23,7 C 44 % 1011,5 hPa 0,0 l/m 25,3 km/h (4 Bft) S-SO 160 0 min 0 W/m 10,7 C 20,4 C 25,3 km/h (4 Bft)
28.05.2008 15:09 23,7 C 45 % 1011,5 hPa 0,0 l/m 25,5 km/h (4 Bft) S 170 0 min 0 W/m 11,1 C 20,3 C 25,5 km/h (4 Bft)
28.05.2008 15:14 23,6 C 44 % 1011,5 hPa 0,0 l/m 21,8 km/h (4 Bft) S 170 0 min 0 W/m 10,6 C 20,6 C 21,8 km/h (4 Bft)
28.05.2008 15:19 23,6 C 44 % 1011,5 hPa 0,0 l/m 28,8 km/h (5 Bft) S 170 0 min 0 W/m 10,6 C 19,9 C 28,8 km/h (5 Bft)
28.05.2008 15:24 23,4 C 45 % 1011,5 hPa 0,0 l/m 20,8 km/h (4 Bft) S 170 0 min 0 W/m 10,8 C 20,5 C 20,8 km/h (4 Bft)
28.05.2008 15:29 23,5 C 45 % 1011,5 hPa 0,0 l/m 24,3 km/h (4 Bft) S 170 0 min 0 W/m 10,9 C 20,2 C 24,3 km/h (4 Bft)
28.05.2008 15:34 23,6 C 47 % 1011,5 hPa 0,0 l/m 22,5 km/h (4 Bft) S 170 0 min 0 W/m 11,6 C 20,5 C 22,5 km/h (4 Bft)
28.05.2008 15:39 23,8 C 45 % 1011,5 hPa 0,0 l/m 29,0 km/h (5 Bft) S-SO 155 0 min 0 W/m 11,1 C 20,1 C 29,0 km/h (5 Bft)
28.05.2008 15:44 23,5 C 44 % 1011,5 hPa 0,0 l/m 22,1 km/h (4 Bft) S 170 0 min 0 W/m 10,5 C 20,5 C 22,1 km/h (4 Bft)
28.05.2008 15:50 23,3 C 45 % 1011,5 hPa 0,0 l/m 15,1 km/h (3 Bft) S-SO 160 0 min 0 W/m 10,7 C 21,2 C 15,1 km/h (3 Bft)
28.05.2008 15:54 22,9 C 45 % 1012,5 hPa 0,0 l/m 22,1 km/h (4 Bft) S-SO 165 0 min 0 W/m 10,3 C 19,7 C 22,1 km/h (4 Bft)
28.05.2008 15:59 22,8 C 45 % 1012,5 hPa 0,0 l/m 28,4 km/h (5 Bft) S-SO 165 0 min 0 W/m 10,2 C 18,8 C 28,4 km/h (5 Bft)
28.05.2008 16:04 22,9 C 45 % 1012,5 hPa 0,0 l/m 28,4 km/h (5 Bft) S-SO 165 0 min 0 W/m 10,3 C 19,0 C 28,4 km/h (5 Bft)
28.05.2008 16:10 23,1 C 44 % 1012,5 hPa 0,0 l/m 28,9 km/h (5 Bft) S-SO 150 0 min 0 W/m 10,2 C 19,2 C 28,9 km/h (5 Bft)
28.05.2008 16:15 23,1 C 45 % 1012,5 hPa 0,0 l/m 23,3 km/h (4 Bft) S-SO 160 0 min 0 W/m 10,5 C 19,8 C 23,3 km/h (4 Bft)
28.05.2008 16:19 23,3 C 44 % 1012,5 hPa 0,0 l/m 21,6 km/h (4 Bft) S-SO 150 0 min 0 W/m 10,4 C 20,3 C 21,6 km/h (4 Bft)
28.05.2008 16:24 23,4 C 45 % 1012,5 hPa 0,0 l/m 20,5 km/h (4 Bft) S-SO 150 0 min 0 W/m 10,8 C 20,5 C 20,5 km/h (4 Bft)
28.05.2008 16:29 23,7 C 45 % 1012,5 hPa 0,0 l/m 20,8 km/h (4 Bft) SO 145 0 min 0 W/m 11,1 C 20,9 C 20,8 km/h (4 Bft)
28.05.2008 16:34 24,0 C 45 % 1012,5 hPa 0,0 l/m 14,5 km/h (3 Bft) S-SO 155 0 min 0 W/m 11,3 C 22,2 C 14,5 km/h (3 Bft)
28.05.2008 16:39 24,1 C 45 % 1011,5 hPa 0,0 l/m 17,3 km/h (3 Bft) S 175 0 min 0 W/m 11,4 C 21,9 C 17,3 km/h (3 Bft)
28.05.2008 16:44 24,4 C 43 % 1011,5 hPa 0,0 l/m 19,8 km/h (3 Bft) SO 145 0 min 0 W/m 11,0 C 21,9 C 19,8 km/h (3 Bft)
28.05.2008 16:49 24,6 C 43 % 1012,5 hPa 0,0 l/m 17,8 km/h (3 Bft) SO 145 0 min 0 W/m 11,2 C 22,4 C 17,8 km/h (3 Bft)
28.05.2008 16:54 24,6 C 43 % 1012,5 hPa 0,0 l/m 15,2 km/h (3 Bft) SO 125 0 min 0 W/m 11,2 C 22,8 C 15,2 km/h (3 Bft)
28.05.2008 17:00 24,6 C 44 % 1011,5 hPa 0,0 l/m 20,4 km/h (4 Bft) SO 140 0 min 0 W/m 11,5 C 22,1 C 20,4 km/h (4 Bft)
28.05.2008 17:04 24,9 C 43 % 1012,5 hPa 0,0 l/m 15,8 km/h (3 Bft) S-SO 150 0 min 0 W/m 11,4 C 23,1 C 15,8 km/h (3 Bft)
28.05.2008 17:09 24,9 C 43 % 1012,5 hPa 0,0 l/m 15,6 km/h (3 Bft) S-SO 155 0 min 0 W/m 11,4 C 23,1 C 15,6 km/h (3 Bft)
28.05.2008 17:14 25,0 C 44 % 1012,5 hPa 0,0 l/m 15,4 km/h (3 Bft) SO 140 0 min 0 W/m 11,9 C 23,2 C 15,4 km/h (3 Bft)
28.05.2008 17:19 25,0 C 42 % 1012,5 hPa 0,0 l/m 16,0 km/h (3 Bft) SO 140 0 min 0 W/m 11,2 C 23,2 C 16,0 km/h (3 Bft)
28.05.2008 17:25 24,8 C 43 % 1012,5 hPa 0,0 l/m 14,5 km/h (3 Bft) SO 130 0 min 0 W/m 11,4 C 23,1 C 14,5 km/h (3 Bft)
28.05.2008 17:29 24,8 C 44 % 1012,5 hPa 0,0 l/m 16,5 km/h (3 Bft) SO 135 0 min 0 W/m 11,7 C 22,8 C 16,5 km/h (3 Bft)
28.05.2008 17:34 25,1 C 42 % 1012,5 hPa 0,0 l/m 16,3 km/h (3 Bft) S-SO 150 0 min 0 W/m 11,3 C 23,2 C 16,3 km/h (3 Bft)
28.05.2008 17:39 25,2 C 40 % 1012,5 hPa 0,0 l/m 15,5 km/h (3 Bft) SO 140 0 min 0 W/m 10,6 C 23,5 C 15,5 km/h (3 Bft)
28.05.2008 17:44 25,2 C 40 % 1012,5 hPa 0,0 l/m 14,9 km/h (3 Bft) S-SO 150 0 min 0 W/m 10,6 C 23,6 C 14,9 km/h (3 Bft)
28.05.2008 17:49 25,3 C 44 % 1012,5 hPa 0,0 l/m 9,6 km/h (2 Bft) O-SO 115 0 min 0 W/m 12,2 C 24,6 C 9,6 km/h (2 Bft)
28.05.2008 17:54 25,1 C 42 % 1012,5 hPa 0,0 l/m 15,6 km/h (3 Bft) O-SO 105 0 min 0 W/m 11,3 C 23,3 C 15,6 km/h (3 Bft)
28.05.2008 17:59 24,5 C 44 % 1012,5 hPa 0,0 l/m 12,6 km/h (3 Bft) SO 145 0 min 0 W/m 11,4 C 23,1 C 12,6 km/h (3 Bft)
28.05.2008 18:04 24,4 C 45 % 1012,5 hPa 0,0 l/m 11,2 km/h (2 Bft) SO 140 0 min 0 W/m 11,7 C 23,3 C 11,2 km/h (2 Bft)
28.05.2008 18:09 24,0 C 46 % 1012,5 hPa 0,0 l/m 11,1 km/h (2 Bft) SO 125 0 min 0 W/m 11,7 C 22,8 C 11,1 km/h (2 Bft)
28.05.2008 18:14 23,7 C 47 % 1012,5 hPa 0,0 l/m 8,2 km/h (2 Bft) SO 140 0 min 0 W/m 11,7 C 23,2 C 8,2 km/h (2 Bft)
28.05.2008 18:19 23,7 C 47 % 1012,5 hPa 0,0 l/m 15,4 km/h (3 Bft) SO 135 0 min 0 W/m 11,7 C 21,7 C 15,4 km/h (3 Bft)
28.05.2008 18:24 23,6 C 47 % 1012,5 hPa 0,0 l/m 13,1 km/h (3 Bft) S-SO 155 0 min 0 W/m 11,6 C 22,0 C 13,1 km/h (3 Bft)
28.05.2008 18:25 23,6 C 47 % 1012,5 hPa 0,0 l/m 13,1 km/h (3 Bft) S-SO 155 0 min 0 W/m 11,6 C 22,0 C 13,1 km/h (3 Bft)
28.05.2008 18:30 23,4 C 46 % 1012,5 hPa 0,0 l/m 17,3 km/h (3 Bft) S-SO 160 0 min 0 W/m 11,1 C 21,0 C 17,3 km/h (3 Bft)
28.05.2008 18:34 23,4 C 47 % 1012,5 hPa 0,0 l/m 13,2 km/h (3 Bft) S-SO 160 0 min 0 W/m 11,4 C 21,7 C 13,2 km/h (3 Bft)
28.05.2008 18:39 23,2 C 46 % 1012,5 hPa 0,0 l/m 10,3 km/h (2 Bft) S-SO 150 0 min 0 W/m 10,9 C 22,1 C 10,3 km/h (2 Bft)
28.05.2008 18:44 23,2 C 48 % 1012,5 hPa 0,0 l/m 8,6 km/h (2 Bft) S-SO 150 0 min 0 W/m 11,6 C 22,5 C 8,6 km/h (2 Bft)
28.05.2008 18:49 23,3 C 48 % 1012,5 hPa 0,0 l/m 10,2 km/h (2 Bft) SO 130 0 min 0 W/m 11,7 C 22,2 C 10,2 km/h (2 Bft)
28.05.2008 18:54 23,4 C 49 % 1012,5 hPa 0,0 l/m 13,5 km/h (3 Bft) O 100 0 min 0 W/m 12,1 C 21,6 C 13,5 km/h (3 Bft)
28.05.2008 18:59 23,5 C 49 % 1012,5 hPa 0,0 l/m 9,7 km/h (2 Bft) S-SO 150 0 min 0 W/m 12,2 C 22,6 C 9,7 km/h (2 Bft)
28.05.2008 19:04 23,5 C 48 % 1012,5 hPa 0,0 l/m 13,2 km/h (3 Bft) SO 145 0 min 0 W/m 11,8 C 21,8 C 13,2 km/h (3 Bft)
28.05.2008 19:09 23,4 C 47 % 1012,5 hPa 0,0 l/m 12,0 km/h (2 Bft) O-SO 120 0 min 0 W/m 11,4 C 21,9 C 12,0 km/h (2 Bft)
28.05.2008 19:14 23,4 C 49 % 1012,5 hPa 0,0 l/m 9,5 km/h (2 Bft) SO 145 0 min 0 W/m 12,1 C 22,5 C 9,5 km/h (2 Bft)
28.05.2008 19:19 23,4 C 49 % 1012,5 hPa 0,0 l/m 11,8 km/h (2 Bft) O-SO 120 0 min 0 W/m 12,1 C 22,0 C 11,8 km/h (2 Bft)
28.05.2008 19:24 23,4 C 49 % 1012,5 hPa 0,0 l/m 10,3 km/h (2 Bft) SO 135 0 min 0 W/m 12,1 C 22,3 C 10,3 km/h (2 Bft)
28.05.2008 19:29 23,2 C 49 % 1012,5 hPa 0,0 l/m 11,8 km/h (2 Bft) SO 130 0 min 0 W/m 11,9 C 21,8 C 11,8 km/h (2 Bft)
28.05.2008 19:35 23,1 C 49 % 1012,5 hPa 0,0 l/m 8,5 km/h (2 Bft) S-SO 150 0 min 0 W/m 11,8 C 22,5 C 8,5 km/h (2 Bft)
28.05.2008 19:39 23,0 C 49 % 1012,5 hPa 0,0 l/m 7,6 km/h (2 Bft) SO 145 0 min 0 W/m 11,7 C 22,6 C 7,6 km/h (2 Bft)
28.05.2008 19:44 23,0 C 49 % 1012,5 hPa 0,0 l/m 7,4 km/h (2 Bft) SO 140 0 min 0 W/m 11,7 C 22,7 C 7,4 km/h (2 Bft)
28.05.2008 19:49 23,0 C 50 % 1012,5 hPa 0,0 l/m 7,6 km/h (2 Bft) O-SO 110 0 min 0 W/m 12,0 C 22,6 C 7,6 km/h (2 Bft)
28.05.2008 19:54 22,9 C 50 % 1013,5 hPa 0,0 l/m 9,6 km/h (2 Bft) S-SO 160 0 min 0 W/m 11,9 C 21,9 C 9,6 km/h (2 Bft)
28.05.2008 19:59 22,8 C 50 % 1013,5 hPa 0,0 l/m 1,2 km/h (1 Bft) S-SO 150 0 min 0 W/m 11,8 C 22,8 C 1,2 km/h (1 Bft)
28.05.2008 20:04 22,4 C 51 % 1013,5 hPa 0,0 l/m 5,2 km/h (1 Bft) SO 145 0 min 0 W/m 11,8 C 22,4 C 5,2 km/h (1 Bft)
28.05.2008 20:09 22,3 C 53 % 1013,5 hPa 0,0 l/m 6,5 km/h (2 Bft) SO 135 0 min 0 W/m 12,2 C 22,3 C 6,5 km/h (2 Bft)
28.05.2008 20:14 22,1 C 53 % 1013,5 hPa 0,0 l/m 9,8 km/h (2 Bft) O 95 0 min 0 W/m 12,1 C 21,0 C 9,8 km/h (2 Bft)
28.05.2008 20:19 21,8 C 54 % 1012,5 hPa 0,0 l/m 11,3 km/h (2 Bft) O 95 0 min 0 W/m 12,1 C 20,3 C 11,3 km/h (2 Bft)
28.05.2008 20:24 21,6 C 52 % 1012,5 hPa 0,0 l/m 13,1 km/h (3 Bft) S 170 0 min 0 W/m 11,3 C 19,6 C 13,1 km/h (3 Bft)
28.05.2008 20:29 21,6 C 52 % 1012,5 hPa 0,0 l/m 17,0 km/h (3 Bft) S 175 0 min 0 W/m 11,3 C 18,8 C 17,0 km/h (3 Bft)
28.05.2008 20:34 21,5 C 52 % 1013,5 hPa 0,0 l/m 11,6 km/h (2 Bft) S 175 0 min 0 W/m 11,2 C 19,9 C 11,6 km/h (2 Bft)
28.05.2008 20:40 21,4 C 53 % 1013,5 hPa 0,0 l/m 9,2 km/h (2 Bft) O-SO 115 0 min 0 W/m 11,4 C 20,4 C 9,2 km/h (2 Bft)
28.05.2008 20:44 21,4 C 53 % 1013,5 hPa 0,0 l/m 1,3 km/h (1 Bft) O-NO 75 0 min 0 W/m 11,4 C 21,4 C 1,3 km/h (1 Bft)
28.05.2008 20:49 21,2 C 54 % 1013,5 hPa 0,0 l/m 3,8 km/h (1 Bft) O 80 0 min 0 W/m 11,5 C 21,2 C 3,8 km/h (1 Bft)
28.05.2008 20:54 21,0 C 55 % 1013,5 hPa 0,0 l/m 5,6 km/h (2 Bft) O-SO 115 0 min 0 W/m 11,6 C 21,0 C 5,6 km/h (2 Bft)
28.05.2008 20:59 20,8 C 56 % 1013,5 hPa 0,0 l/m 6,5 km/h (2 Bft) O-SO 110 0 min 0 W/m 11,7 C 20,8 C 6,5 km/h (2 Bft)
28.05.2008 21:04 20,7 C 56 % 1013,5 hPa 0,0 l/m 4,9 km/h (1 Bft) O-SO 110 0 min 0 W/m 11,6 C 20,7 C 4,9 km/h (1 Bft)
28.05.2008 21:09 20,6 C 57 % 1013,5 hPa 0,0 l/m 3,8 km/h (1 Bft) O 100 0 min 0 W/m 11,8 C 20,6 C 3,8 km/h (1 Bft)
28.05.2008 21:14 20,4 C 57 % 1013,5 hPa 0,0 l/m 8,2 km/h (2 Bft) O-SO 115 0 min 0 W/m 11,6 C 19,7 C 8,2 km/h (2 Bft)
28.05.2008 21:19 20,3 C 57 % 1013,5 hPa 0,0 l/m 1,3 km/h (1 Bft) O 95 0 min 0 W/m 11,5 C 20,3 C 1,3 km/h (1 Bft)
28.05.2008 21:24 20,2 C 57 % 1013,5 hPa 0,0 l/m 5,3 km/h (1 Bft) S-SO 150 0 min 0 W/m 11,4 C 20,2 C 5,3 km/h (1 Bft)
28.05.2008 21:29 20,0 C 58 % 1013,5 hPa 0,0 l/m 3,6 km/h (1 Bft) O-SO 115 0 min 0 W/m 11,5 C 20,0 C 3,6 km/h (1 Bft)
28.05.2008 21:34 19,9 C 58 % 1013,5 hPa 0,0 l/m 5,6 km/h (2 Bft) SO 135 0 min 0 W/m 11,4 C 19,9 C 5,6 km/h (2 Bft)
28.05.2008 21:40 19,6 C 59 % 1013,5 hPa 0,0 l/m 6,2 km/h (2 Bft) SO 125 0 min 0 W/m 11,4 C 19,6 C 6,2 km/h (2 Bft)
28.05.2008 21:45 19,4 C 59 % 1013,5 hPa 0,0 l/m 6,7 km/h (2 Bft) SO 130 0 min 0 W/m 11,2 C 19,3 C 6,7 km/h (2 Bft)
28.05.2008 21:49 19,3 C 60 % 1013,5 hPa 0,0 l/m 9,6 km/h (2 Bft) SO 145 0 min 0 W/m 11,3 C 18,0 C 9,6 km/h (2 Bft)
28.05.2008 21:54 19,1 C 61 % 1013,5 hPa 0,0 l/m 7,8 km/h (2 Bft) SO 130 0 min 0 W/m 11,4 C 18,5 C 7,8 km/h (2 Bft)
28.05.2008 21:59 18,8 C 61 % 1013,5 hPa 0,0 l/m 5,4 km/h (2 Bft) O-SO 120 0 min 0 W/m 11,1 C 18,8 C 5,4 km/h (2 Bft)
28.05.2008 22:04 18,8 C 61 % 1013,5 hPa 0,0 l/m 8,5 km/h (2 Bft) SO 125 0 min 0 W/m 11,1 C 17,9 C 8,5 km/h (2 Bft)
28.05.2008 22:09 18,8 C 61 % 1013,5 hPa 0,0 l/m 9,0 km/h (2 Bft) SO 135 0 min 0 W/m 11,1 C 17,7 C 9,0 km/h (2 Bft)
28.05.2008 22:14 18,8 C 61 % 1013,5 hPa 0,0 l/m 6,8 km/h (2 Bft) SO 140 0 min 0 W/m 11,1 C 18,6 C 6,8 km/h (2 Bft)
28.05.2008 22:19 19,0 C 61 % 1013,5 hPa 0,0 l/m 7,9 km/h (2 Bft) O-SO 115 0 min 0 W/m 11,3 C 18,3 C 7,9 km/h (2 Bft)
28.05.2008 22:24 19,1 C 61 % 1014,5 hPa 0,0 l/m 5,0 km/h (1 Bft) S-SO 150 0 min 0 W/m 11,4 C 19,1 C 5,0 km/h (1 Bft)
28.05.2008 22:29 19,2 C 61 % 1014,5 hPa 0,0 l/m 7,0 km/h (2 Bft) SO 145 0 min 0 W/m 11,5 C 18,9 C 7,0 km/h (2 Bft)
28.05.2008 22:34 19,2 C 61 % 1014,5 hPa 0,0 l/m 8,8 km/h (2 Bft) O-SO 115 0 min 0 W/m 11,5 C 18,2 C 8,8 km/h (2 Bft)
28.05.2008 22:40 19,1 C 60 % 1014,5 hPa 0,0 l/m 10,2 km/h (2 Bft) O-SO 105 0 min 0 W/m 11,1 C 17,6 C 10,2 km/h (2 Bft)
28.05.2008 22:44 19,0 C 60 % 1014,5 hPa 0,0 l/m 9,8 km/h (2 Bft) O-SO 110 0 min 0 W/m 11,1 C 17,6 C 9,8 km/h (2 Bft)
28.05.2008 22:49 18,9 C 60 % 1013,5 hPa 0,0 l/m 8,8 km/h (2 Bft) O 100 0 min 0 W/m 11,0 C 17,9 C 8,8 km/h (2 Bft)
28.05.2008 22:54 18,8 C 61 % 1013,5 hPa 0,0 l/m 15,5 km/h (3 Bft) SO 125 0 min 0 W/m 11,1 C 15,7 C 15,5 km/h (3 Bft)
28.05.2008 22:59 18,7 C 61 % 1013,5 hPa 0,0 l/m 9,6 km/h (2 Bft) SO 130 0 min 0 W/m 11,0 C 17,4 C 9,6 km/h (2 Bft)
28.05.2008 23:04 18,6 C 60 % 1013,5 hPa 0,0 l/m 9,8 km/h (2 Bft) S-SO 150 0 min 0 W/m 10,7 C 17,2 C 9,8 km/h (2 Bft)
28.05.2008 23:09 18,6 C 60 % 1013,5 hPa 0,0 l/m 14,1 km/h (3 Bft) S-SO 150 0 min 0 W/m 10,7 C 15,8 C 14,1 km/h (3 Bft)
28.05.2008 23:14 18,6 C 60 % 1013,5 hPa 0,0 l/m 13,3 km/h (3 Bft) S-SO 165 0 min 0 W/m 10,7 C 16,0 C 13,3 km/h (3 Bft)
28.05.2008 23:19 18,6 C 60 % 1013,5 hPa 0,0 l/m 11,7 km/h (2 Bft) SO 135 0 min 0 W/m 10,7 C 16,5 C 11,7 km/h (2 Bft)
28.05.2008 23:24 18,6 C 60 % 1013,5 hPa 0,0 l/m 12,1 km/h (2 Bft) S-SO 165 0 min 0 W/m 10,7 C 16,4 C 12,1 km/h (2 Bft)
28.05.2008 23:29 18,6 C 60 % 1014,5 hPa 0,0 l/m 13,8 km/h (3 Bft) S-SO 155 0 min 0 W/m 10,7 C 15,9 C 13,8 km/h (3 Bft)
28.05.2008 23:34 18,6 C 60 % 1014,5 hPa 0,0 l/m 11,1 km/h (2 Bft) SO 135 0 min 0 W/m 10,7 C 16,7 C 11,1 km/h (2 Bft)
28.05.2008 23:40 18,6 C 60 % 1014,5 hPa 0,0 l/m 9,0 km/h (2 Bft) SO 130 0 min 0 W/m 10,7 C 17,5 C 9,0 km/h (2 Bft)
28.05.2008 23:44 18,6 C 60 % 1014,5 hPa 0,0 l/m 8,1 km/h (2 Bft) SO 135 0 min 0 W/m 10,7 C 17,8 C 8,1 km/h (2 Bft)
28.05.2008 23:49 18,5 C 61 % 1014,5 hPa 0,0 l/m 5,4 km/h (2 Bft) SO 145 0 min 0 W/m 10,8 C 18,5 C 5,4 km/h (2 Bft)
28.05.2008 23:54 18,5 C 61 % 1014,5 hPa 0,0 l/m 7,4 km/h (2 Bft) S 185 0 min 0 W/m 10,8 C 18,0 C 7,4 km/h (2 Bft)
28.05.2008 23:59 18,6 C 61 % 1014,5 hPa 0,0 l/m 5,2 km/h (1 Bft) S 170 0 min 0 W/m 10,9 C 18,6 C 5,2 km/h (1 Bft)
_ Min-Zeit 03:14 17:39 10:19 - 19:59 - - - - 01:34 04:34 19:59
Minimum _ 12,8 C 40 % 1010,5 hPa - 1,2 km/h (1 Bft) - - - - 7,3 C 3,8 C 1,2 km/h (1 Bft)
_ Max-Zeit 14:14 04:49 00:04 00:04 10:34 - - 00:04 00:04 12:14 17:49 10:34
Maximum _ 25,4 C 74 % 1014,5 hPa 0,0 l/m 42,1 km/h
SO (6 Bft)
- - 0 min 0 W/m 12,5 C 24,6 C 42,1 km/h
SO (6 Bft)
Durchschnitt _ 18,9 C 58 % 1012,7 hPa #0,0 l/m 22,1 km/h (4 Bft) SO - #0 min. 0 W/m 10,1 C 14,6 C 22,1 km/h (4 Bft)
copyright by Holger Just